Time;durP1;ratioP1;P1;durP2;ratioP2;P2;SDS_P1;SDS_P2;PMS_P1;PMS_P2;Temp;Humidity;BMP_temperature;BMP_pressure;BME280_temperature;BME280_humidity;BME280_pressure;Samples;Min_cycle;Max_cycle;Signal;HPM_P1;HPM_P2
2022/04/14 00:00:48;;;;;;;14.68;8.80;;;10.80;99.90;;;;;;4859898;29;20506;-86
2022/04/14 00:03:26;;;;;;;17.20;8.68;;;10.80;99.90;;;;;;4861003;29;20144;-86
2022/04/14 00:05:52;;;;;;;16.27;8.60;;;10.50;99.90;;;;;;4861040;29;20489;-86
2022/04/14 00:08:18;;;;;;;18.13;9.32;;;10.80;99.90;;;;;;4860266;29;20119;-87
2022/04/14 00:10:59;;;;;;;17.02;8.90;;;10.80;99.90;;;;;;4861462;29;20135;-86
2022/04/14 00:13:24;;;;;;;17.77;8.25;;;10.80;99.90;;;;;;4861173;29;20052;-86
2022/04/14 00:15:50;;;;;;;14.27;8.88;;;10.90;99.90;;;;;;4861962;29;20115;-86
2022/04/14 00:18:31;;;;;;;27.65;9.98;;;11.30;99.90;;;;;;4879688;29;20052;-85
2022/04/14 00:20:57;;;;;;;18.42;9.65;;;11.50;99.90;;;;;;4864708;29;20044;-87
2022/04/14 00:23:22;;;;;;;17.77;10.55;;;11.10;99.90;;;;;;4864118;29;20091;-87
2022/04/14 00:25:48;;;;;;;17.55;10.20;;;11.50;99.90;;;;;;4864920;29;20162;-87
2022/04/14 00:28:24;;;;;;;18.90;10.88;;;10.80;99.90;;;;;;4864049;29;20048;-87
2022/04/14 00:30:49;;;;;;;20.02;10.25;;;11.50;99.90;;;;;;4864089;29;20060;-87
2022/04/14 00:33:15;;;;;;;18.85;10.13;;;11.50;99.90;;;;;;4871697;23;20041;-87
2022/04/14 00:35:41;;;;;;;20.33;10.60;;;10.70;99.90;;;;;;4882276;29;20088;-86
2022/04/14 00:38:06;;;;;;;18.33;9.88;;;10.70;99.90;;;;;;4882588;29;20041;-86
2022/04/14 00:40:32;;;;;;;18.92;10.57;;;10.70;99.90;;;;;;4898022;29;20048;-86
2022/04/14 00:42:58;;;;;;;25.33;11.32;;;10.60;99.90;;;;;;4897857;29;20044;-86
2022/04/14 00:45:23;;;;;;;15.00;9.70;;;11.30;99.90;;;;;;4897246;29;20052;-86
2022/04/14 00:47:51;;;;;;;20.10;10.73;;;10.50;99.90;;;;;;4882165;29;20535;-85
2022/04/14 00:50:17;;;;;;;17.02;9.95;;;10.80;99.90;;;;;;4881398;29;20051;-87
2022/04/14 00:52:58;;;;;;;19.60;11.88;;;10.40;99.90;;;;;;4882481;29;20056;-87
2022/04/14 00:55:24;;;;;;;19.20;10.13;;;11.00;99.90;;;;;;4881565;29;20131;-87
2022/04/14 00:57:50;;;;;;;18.08;10.55;;;10.30;99.90;;;;;;4881696;29;20127;-85
2022/04/14 01:00:16;;;;;;;15.70;10.30;;;11.00;99.90;;;;;;4880915;29;20087;-84
2022/04/14 01:02:57;;;;;;;17.33;10.55;;;10.50;99.90;;;;;;4882115;29;20127;-86
2022/04/14 01:05:24;;;;;;;19.38;10.20;;;10.40;99.90;;;;;;4881492;29;20095;-86
2022/04/14 01:08:05;;;;;;;17.63;10.20;;;10.00;99.90;;;;;;4882291;29;20051;-85
2022/04/14 01:10:31;;;;;;;22.38;11.38;;;9.90;99.90;;;;;;4881199;29;20056;-85
2022/04/14 01:13:13;;;;;;;22.15;11.50;;;10.20;99.90;;;;;;4896997;29;20044;-85
2022/04/14 01:15:39;;;;;;;20.48;11.55;;;10.60;99.90;;;;;;4880586;29;20441;-85
2022/04/14 01:18:05;;;;;;;20.33;11.15;;;10.30;99.90;;;;;;4880945;29;20087;-86
2022/04/14 01:20:31;;;;;;;19.02;11.52;;;9.90;99.90;;;;;;4881330;29;20079;-86
2022/04/14 01:23:11;;;;;;;17.05;10.10;;;10.60;99.90;;;;;;4886733;29;20040;-86
2022/04/14 01:25:38;;;;;;;20.95;10.82;;;8.80;99.90;;;;;;4861820;29;20485;-86
2022/04/14 01:28:05;;;;;;;18.50;10.40;;;10.30;99.90;;;;;;4878277;29;20116;-85
2022/04/14 01:30:45;;;;;;;21.63;10.57;;;9.50;99.90;;;;;;4864098;29;20155;-86
2022/04/14 01:33:11;;;;;;;17.30;11.45;;;9.80;99.90;;;;;;4861208;29;20100;-85
2022/04/14 01:35:37;;;;;;;20.13;11.98;;;9.80;99.90;;;;;;4862829;29;20056;-85
2022/04/14 01:38:18;;;;;;;23.02;11.35;;;7.90;99.90;;;;;;4862167;29;20049;-85
2022/04/14 01:40:43;;;;;;;20.05;11.10;;;9.30;99.90;;;;;;4862521;29;20497;-85
2022/04/14 01:43:09;;;;;;;23.27;12.15;;;9.30;99.90;;;;;;4862652;29;20045;-85
2022/04/14 01:45:35;;;;;;;21.38;12.13;;;9.30;99.90;;;;;;4878172;29;20484;-86
2022/04/14 01:48:13;;;;;;;21.92;12.23;;;9.30;99.90;;;;;;4878972;29;20045;-86
2022/04/14 01:50:38;;;;;;;24.15;13.57;;;9.60;99.90;;;;;;4863668;29;20060;-85
2022/04/14 01:53:04;;;;;;;20.42;12.98;;;9.30;99.90;;;;;;4878625;29;20049;-87
2022/04/14 01:55:30;;;;;;;26.00;12.60;;;10.30;99.90;;;;;;4878445;29;20420;-87
2022/04/14 01:58:05;;;;;;;20.60;12.68;;;9.30;99.90;;;;;;4862511;29;20045;-87
2022/04/14 02:00:31;;;;;;;25.75;12.95;;;9.30;99.90;;;;;;4874505;29;20111;-86
2022/04/14 02:02:56;;;;;;;22.45;13.68;;;10.10;99.90;;;;;;4881032;29;20039;-86
2022/04/14 02:05:37;;;;;;;27.45;13.77;;;9.50;99.90;;;;;;4881584;29;20048;-86
2022/04/14 02:08:03;;;;;;;22.42;13.07;;;9.70;99.90;;;;;;4880226;29;20044;-86
2022/04/14 02:10:41;;;;;;;23.17;13.05;;;9.20;99.90;;;;;;4880975;29;20055;-86
2022/04/14 02:13:06;;;;;;;20.63;14.25;;;9.90;99.90;;;;;;4880482;29;20052;-85
2022/04/14 02:15:32;;;;;;;22.85;13.90;;;9.40;99.90;;;;;;4879382;29;20059;-85
2022/04/14 02:18:13;;;;;;;27.52;14.93;;;9.20;99.90;;;;;;4880329;29;20055;-85
2022/04/14 02:20:39;;;;;;;29.70;16.35;;;9.00;99.90;;;;;;4895855;29;20090;-85
2022/04/14 02:23:05;;;;;;;30.13;16.15;;;9.70;99.90;;;;;;4895928;29;20091;-85
2022/04/14 02:25:30;;;;;;;22.17;14.98;;;9.00;99.90;;;;;;4895739;29;20051;-84
2022/04/14 02:27:56;;;;;;;21.80;15.23;;;9.70;99.90;;;;;;4879840;29;20055;-85
2022/04/14 02:30:37;;;;;;;23.65;14.63;;;9.10;99.90;;;;;;4879918;29;20143;-85
2022/04/14 02:33:03;;;;;;;26.38;15.80;;;8.50;99.90;;;;;;4895401;29;20397;-85
2022/04/14 02:35:29;;;;;;;25.95;15.20;;;8.90;99.90;;;;;;4879340;29;20504;-85
2022/04/14 02:37:56;;;;;;;27.83;16.17;;;9.40;99.90;;;;;;4879717;29;20103;-85
2022/04/14 02:40:37;;;;;;;23.48;14.02;;;9.50;99.90;;;;;;4880694;29;20048;-86
2022/04/14 02:43:03;;;;;;;26.73;15.77;;;8.00;99.90;;;;;;4879476;29;20172;-85
2022/04/14 02:45:44;;;;;;;24.67;15.60;;;8.60;99.90;;;;;;4879979;29;20394;-86
2022/04/14 02:48:10;;;;;;;25.08;15.65;;;8.70;99.90;;;;;;4895944;29;20048;-84
2022/04/14 02:50:38;;;;;;;28.70;16.83;;;8.90;99.90;;;;;;4860870;29;20040;-86
2022/04/14 02:53:04;;;;;;;23.90;15.73;;;9.20;99.90;;;;;;4861913;29;20098;-86
2022/04/14 02:55:39;;;;;;;26.10;17.67;;;8.50;99.90;;;;;;4860982;29;20163;-86
2022/04/14 02:58:04;;;;;;;33.28;19.17;;;9.10;99.90;;;;;;4862833;29;20421;-86
2022/04/14 03:00:30;;;;;;;31.92;18.05;;;9.30;99.90;;;;;;4860823;29;20053;-86
2022/04/14 03:02:56;;;;;;;32.83;18.98;;;8.60;99.90;;;;;;4861244;29;20044;-88
2022/04/14 03:05:36;;;;;;;31.13;19.58;;;8.90;99.90;;;;;;4862472;29;20044;-86
2022/04/14 03:08:02;;;;;;;28.08;17.88;;;9.50;99.90;;;;;;4861725;29;20056;-86
2022/04/14 03:10:27;;;;;;;35.65;20.42;;;8.50;99.90;;;;;;4860525;29;20092;-86
2022/04/14 03:12:53;;;;;;;29.83;19.27;;;9.20;99.90;;;;;;4861755;29;20056;-87
2022/04/14 03:15:34;;;;;;;31.45;20.50;;;8.50;99.90;;;;;;4861794;29;20449;-86
2022/04/14 03:18:00;;;;;;;34.47;20.83;;;9.00;99.90;;;;;;4861326;29;20114;-87
2022/04/14 03:20:25;;;;;;;38.20;21.48;;;7.70;99.90;;;;;;4861725;29;20825;-86
2022/04/14 03:22:51;;;;;;;34.33;21.20;;;8.70;99.90;;;;;;4868516;29;20052;-87
2022/04/14 03:25:29;;;;;;;32.83;19.85;;;9.00;99.90;;;;;;4861993;29;20534;-87
2022/04/14 03:27:55;;;;;;;36.25;22.88;;;8.60;99.90;;;;;;4861536;29;20059;-87
2022/04/14 03:30:20;;;;;;;36.17;21.00;;;8.80;99.90;;;;;;4861546;29;20049;-87
2022/04/14 03:32:47;;;;;;;40.58;25.50;;;8.20;99.90;;;;;;4861486;29;20079;-87
2022/04/14 03:35:28;;;;;;;47.00;25.60;;;9.30;99.90;;;;;;4861573;29;20092;-87
2022/04/14 03:37:53;;;;;;;51.28;29.50;;;8.30;99.90;;;;;;4860611;29;20552;-86
2022/04/14 03:40:19;;;;;;;45.60;27.52;;;8.90;99.90;;;;;;4877905;29;20131;-87
2022/04/14 03:43:00;;;;;;;46.70;26.75;;;8.70;99.90;;;;;;4877777;29;20108;-86
2022/04/14 03:45:26;;;;;;;43.67;25.10;;;9.20;99.90;;;;;;4861729;29;20049;-88
2022/04/14 03:47:51;;;;;;;47.15;26.50;;;8.50;99.90;;;;;;4861919;29;20052;-88
2022/04/14 03:50:31;;;;;;;35.60;24.38;;;9.20;99.90;;;;;;4864364;29;20044;-87
2022/04/14 03:52:57;;;;;;;42.50;25.88;;;9.20;99.90;;;;;;4865245;29;20040;-87
2022/04/14 03:55:22;;;;;;;41.50;25.27;;;9.00;99.90;;;;;;4865651;29;20048;-87
2022/04/14 03:57:48;;;;;;;42.67;24.92;;;8.30;99.90;;;;;;4865648;29;20048;-87
2022/04/14 04:00:29;;;;;;;44.75;26.58;;;8.80;99.90;;;;;;4864640;29;20476;-87
2022/04/14 04:02:54;;;;;;;43.20;25.48;;;9.00;99.90;;;;;;4865528;29;20108;-87
2022/04/14 04:05:20;;;;;;;45.22;27.73;;;9.10;99.90;;;;;;4865065;29;20103;-87
2022/04/14 04:07:46;;;;;;;49.70;28.75;;;8.20;99.90;;;;;;4864486;29;20382;-87
2022/04/14 04:10:27;;;;;;;51.83;29.20;;;8.60;99.90;;;;;;4865655;29;20051;-87
2022/04/14 04:12:53;;;;;;;52.80;28.27;;;8.10;99.90;;;;;;4874534;29;20083;-87
2022/04/14 04:15:18;;;;;;;51.55;30.73;;;8.50;99.90;;;;;;4864513;29;20110;-87
2022/04/14 04:17:46;;;;;;;45.63;28.38;;;8.20;99.90;;;;;;4881080;29;20057;-87
2022/04/14 04:20:27;;;;;;;52.03;28.67;;;7.50;99.90;;;;;;4870990;29;20124;-87
2022/04/14 04:22:53;;;;;;;48.60;29.13;;;8.60;99.90;;;;;;4883370;29;20044;-86
2022/04/14 04:25:19;;;;;;;49.22;29.65;;;8.10;99.90;;;;;;4883523;29;20493;-86
2022/04/14 04:28:05;;;;;;;42.38;27.52;;;8.50;99.90;;;;;;4884177;29;20094;-87
2022/04/14 04:30:30;;;;;;;45.78;26.48;;;8.10;99.90;;;;;;4882425;29;20452;-87
2022/04/14 04:32:56;;;;;;;42.17;27.02;;;8.00;99.90;;;;;;4883932;29;20040;-87
2022/04/14 04:35:49;;;;;;;51.90;28.95;;;7.90;99.90;;;;;;4883307;29;20564;-87
2022/04/14 04:38:30;;;;;;;51.38;28.13;;;7.90;99.90;;;;;;4884173;29;20071;-88
2022/04/14 04:40:58;;;;;;;46.83;26.50;;;8.80;99.90;;;;;;4882935;29;20051;-87
2022/04/14 04:43:25;;;;;;;44.97;28.35;;;8.70;99.90;;;;;;4884271;29;20044;-87
2022/04/14 04:46:03;;;;;;;50.58;31.45;;;7.80;99.90;;;;;;4882091;29;20052;-89
2022/04/14 04:48:29;;;;;;;45.30;25.98;;;8.40;99.90;;;;;;4883548;29;20048;-87
2022/04/14 04:50:55;;;;;;;45.78;28.58;;;7.70;99.90;;;;;;4883089;29;20047;-88
2022/04/14 04:53:21;;;;;;;48.85;28.65;;;8.30;99.90;;;;;;4883473;29;20055;-87
2022/04/14 04:56:06;;;;;;;47.10;28.77;;;7.60;99.90;;;;;;4881887;29;20083;-87
2022/04/14 04:58:32;;;;;;;51.22;29.35;;;7.80;99.90;;;;;;4882096;29;20064;-87
2022/04/14 05:00:58;;;;;;;54.60;32.67;;;8.20;99.90;;;;;;4882130;29;20450;-87
2022/04/14 05:03:39;;;;;;;64.50;33.72;;;7.90;99.90;;;;;;4882647;29;20567;-88
2022/04/14 05:06:05;;;;;;;58.20;32.33;;;7.70;99.90;;;;;;4898097;29;20044;-88
2022/04/14 05:08:31;;;;;;;49.45;30.83;;;8.20;99.90;;;;;;4882868;29;20048;-86
2022/04/14 05:10:57;;;;;;;51.63;29.42;;;8.60;99.90;;;;;;4881126;29;20055;-86
2022/04/14 05:13:34;;;;;;;56.08;30.40;;;6.80;99.90;;;;;;4882456;29;20052;-85
2022/04/14 05:16:02;;;;;;;55.47;31.67;;;7.70;99.90;;;;;;4895848;29;20052;-86
2022/04/14 05:18:28;;;;;;;52.90;32.38;;;7.80;99.90;;;;;;4881528;29;20043;-86
2022/04/14 05:20:54;;;;;;;48.60;29.60;;;7.30;99.90;;;;;;4881417;29;20055;-85
2022/04/14 05:23:33;;;;;;;51.38;29.10;;;7.80;99.90;;;;;;4883722;29;20037;-85
2022/04/14 05:25:59;;;;;;;63.13;34.05;;;7.80;99.90;;;;;;4862261;29;20100;-86
2022/04/14 05:28:25;;;;;;;55.28;31.38;;;7.80;99.90;;;;;;4878918;29;20045;-85
2022/04/14 05:30:51;;;;;;;54.85;31.17;;;7.80;99.90;;;;;;4877039;29;20087;-85
2022/04/14 05:33:42;;;;;;;65.63;34.88;;;7.90;99.90;;;;;;4878503;29;20076;-85
2022/04/14 05:36:08;;;;;;;71.15;37.97;;;8.00;99.90;;;;;;4878127;29;20104;-86
2022/04/14 05:38:49;;;;;;;69.78;38.55;;;8.10;99.90;;;;;;4862493;29;20049;-86
2022/04/14 05:41:15;;;;;;;74.00;39.72;;;8.80;99.90;;;;;;4883659;29;20051;-86
2022/04/14 05:43:41;;;;;;;78.90;40.55;;;8.60;99.90;;;;;;4957627;23;20040;-85
2022/04/14 05:46:22;;;;;;;82.60;40.90;;;8.60;99.90;;;;;;4878834;29;20044;-85
2022/04/14 05:48:49;;;;;;;80.22;41.30;;;8.70;99.90;;;;;;4879007;29;20135;-86
2022/04/14 05:51:15;;;;;;;69.07;39.85;;;9.80;99.90;;;;;;4879864;29;20051;-86
2022/04/14 05:53:41;;;;;;;70.82;40.45;;;9.70;99.90;;;;;;4880815;29;20044;-86
2022/04/14 05:56:08;;;;;;;75.05;39.78;;;9.10;99.90;;;;;;4895036;29;20127;-85
2022/04/14 05:58:44;;;;;;;65.97;37.90;;;9.20;99.90;;;;;;4895163;29;20051;-86
2022/04/14 06:01:09;;;;;;;71.07;37.80;;;9.30;99.90;;;;;;4882384;29;20470;-86
2022/04/14 06:03:35;;;;;;;69.53;38.53;;;9.40;99.90;;;;;;4906023;29;20231;-85
2022/04/14 06:06:01;;;;;;;65.57;36.10;;;10.40;99.90;;;;;;4887915;29;20095;-86
2022/04/14 06:08:27;;;;;;;68.28;35.30;;;9.50;99.90;;;;;;4885685;29;20043;-86
2022/04/14 06:11:02;;;;;;;56.85;34.80;;;9.60;99.90;;;;;;4905252;29;20066;-86
2022/04/14 06:13:27;;;;;;;51.17;31.92;;;9.10;99.90;;;;;;4885431;29;20120;-86
2022/04/14 06:15:53;;;;;;;67.00;33.35;;;9.70;99.90;;;;;;4902720;29;20055;-87
2022/04/14 06:18:21;;;;;;;66.00;35.47;;;9.70;99.90;;;;;;4906398;29;20048;-85
2022/04/14 06:21:01;;;;;;;63.35;34.25;;;9.70;99.90;;;;;;4887865;29;20051;-87
2022/04/14 06:23:27;;;;;;;63.55;35.08;;;10.70;99.90;;;;;;4895236;29;20044;-86
2022/04/14 06:25:54;;;;;;;61.03;34.42;;;10.20;99.90;;;;;;4889659;29;20050;-87
2022/04/14 06:28:20;;;;;;;57.92;34.75;;;9.90;99.90;;;;;;4890646;29;20044;-87
2022/04/14 06:31:01;;;;;;;61.17;35.47;;;10.00;99.90;;;;;;4888041;29;20047;-86
2022/04/14 06:33:30;;;;;;;47.22;31.20;;;10.90;99.90;;;;;;4887176;29;20048;-86
2022/04/14 06:35:58;;;;;;;52.08;30.58;;;11.00;99.90;;;;;;4889007;29;20406;-86
2022/04/14 06:38:37;;;;;;;57.10;33.38;;;10.40;99.90;;;;;;4894075;29;20052;-87
2022/04/14 06:41:02;;;;;;;49.60;29.95;;;11.10;99.90;;;;;;4884459;29;20051;-86
2022/04/14 06:43:45;;;;;;;53.58;32.10;;;10.90;99.90;;;;;;4890966;29;20660;-87
2022/04/14 06:46:11;;;;;;;52.00;32.63;;;10.40;99.90;;;;;;4905149;29;20044;-85
2022/04/14 06:48:36;;;;;;;56.45;29.33;;;10.40;99.90;;;;;;4888870;29;20398;-85
2022/04/14 06:51:14;;;;;;;49.63;29.75;;;10.50;99.90;;;;;;4887440;29;20075;-85
2022/04/14 06:53:43;;;;;;;46.53;27.65;;;10.60;99.90;;;;;;4888324;29;20050;-86
2022/04/14 06:56:09;;;;;;;49.70;30.20;;;11.10;99.90;;;;;;4887008;29;20130;-86
2022/04/14 06:58:36;;;;;;;45.00;27.02;;;11.20;99.90;;;;;;4905436;29;20341;-86
2022/04/14 07:01:20;;;;;;;47.33;27.58;;;10.80;99.90;;;;;;4888350;29;20062;-85
2022/04/14 07:03:46;;;;;;;35.95;23.90;;;10.90;99.90;;;;;;4886325;29;20571;-86
2022/04/14 07:06:12;;;;;;;39.50;23.70;;;11.70;99.90;;;;;;4890185;29;20126;-86
2022/04/14 07:08:56;;;;;;;38.83;22.55;;;11.00;99.90;;;;;;4889057;29;20071;-85
2022/04/14 07:11:22;;;;;;;37.42;23.15;;;11.10;99.90;;;;;;4899004;29;20056;-85
2022/04/14 07:13:47;;;;;;;40.33;21.88;;;11.20;99.90;;;;;;4905549;29;20044;-87
2022/04/14 07:16:13;;;;;;;36.67;21.63;;;11.30;99.90;;;;;;4890337;29;20052;-87
2022/04/14 07:18:42;;;;;;;36.88;21.40;;;11.40;99.90;;;;;;4889071;29;20043;-87
2022/04/14 07:21:07;;;;;;;36.83;21.13;;;11.40;99.90;;;;;;4889684;29;20043;-85
2022/04/14 07:23:33;;;;;;;31.63;19.65;;;11.60;99.90;;;;;;4888258;29;20381;-85
2022/04/14 07:25:59;;;;;;;33.03;20.55;;;11.60;99.90;;;;;;4922001;29;20123;-86
2022/04/14 07:28:37;;;;;;;31.92;20.77;;;11.90;99.90;;;;;;4904817;29;20123;-86
2022/04/14 07:31:02;;;;;;;29.42;19.77;;;11.80;99.90;;;;;;4886741;29;20048;-85
2022/04/14 07:33:28;;;;;;;27.73;18.40;;;12.40;99.90;;;;;;4904723;29;20050;-85
2022/04/14 07:35:54;;;;;;;31.52;19.27;;;12.00;99.90;;;;;;4899061;29;20050;-86
2022/04/14 07:38:20;;;;;;;26.45;18.92;;;12.00;99.90;;;;;;4893694;29;20099;-87
2022/04/14 07:40:46;;;;;;;31.15;20.58;;;12.10;99.90;;;;;;4895132;29;20052;-87
2022/04/14 07:43:11;;;;;;;29.38;19.95;;;12.20;99.90;;;;;;4898231;29;20611;-87
2022/04/14 07:45:39;;;;;;;34.47;19.88;;;12.30;99.90;;;;;;4893088;29;20105;-86
2022/04/14 07:48:05;;;;;;;31.55;21.10;;;12.40;99.90;;;;;;4907265;29;20055;-85
2022/04/14 07:50:32;;;;;;;31.52;22.08;;;12.50;99.90;;;;;;4890561;29;20087;-85
2022/04/14 07:52:59;;;;;;;33.53;21.15;;;12.60;99.90;;;;;;4908551;29;20079;-86
2022/04/14 07:55:28;;;;;;;31.80;21.17;;;12.70;99.90;;;;;;4893578;29;20051;-86
2022/04/14 07:57:56;;;;;;;33.05;20.23;;;12.70;99.90;;;;;;4888310;29;20048;-86
2022/04/14 08:00:23;;;;;;;27.23;19.40;;;12.90;99.90;;;;;;4902358;29;20589;-85
2022/04/14 08:02:53;;;;;;;31.10;21.35;;;12.90;99.90;;;;;;4895790;29;20066;-85
2022/04/14 08:05:20;;;;;;;27.00;20.05;;;13.00;99.90;;;;;;4896622;29;20036;-85
2022/04/14 08:07:46;;;;;;;34.63;20.25;;;13.10;99.90;;;;;;4889480;29;20143;-85
2022/04/14 08:10:12;;;;;;;26.35;19.50;;;13.10;99.90;;;;;;4905142;29;20126;-85
2022/04/14 08:12:37;;;;;;;28.67;19.33;;;13.50;99.90;;;;;;4879292;29;20080;-87
2022/04/14 08:15:04;;;;;;;27.67;18.50;;;13.30;99.90;;;;;;4894380;29;20051;-85
2022/04/14 08:17:30;;;;;;;25.70;19.70;;;13.30;99.90;;;;;;4888380;29;20048;-85
2022/04/14 08:19:56;;;;;;;29.10;18.45;;;13.60;99.90;;;;;;4909430;29;20063;-85
2022/04/14 08:22:21;;;;;;;28.33;19.70;;;13.80;99.90;;;;;;4892464;29;20421;-85
2022/04/14 08:24:49;;;;;;;28.58;21.35;;;14.00;99.90;;;;;;4897096;29;20517;-85
2022/04/14 08:27:15;;;;;;;29.90;20.08;;;13.70;99.90;;;;;;4888116;29;20496;-85
2022/04/14 08:29:50;;;;;;;25.38;19.40;;;13.80;99.90;;;;;;4890940;29;20103;-85
2022/04/14 08:32:15;;;;;;;30.63;19.65;;;13.90;99.90;;;;;;4869259;29;20064;-85
2022/04/14 08:34:44;;;;;;;28.70;19.25;;;14.00;99.90;;;;;;4887547;29;20041;-85
2022/04/14 08:37:10;;;;;;;25.45;19.27;;;14.10;99.90;;;;;;4911130;29;20070;-85
2022/04/14 08:39:36;;;;;;;27.40;18.02;;;14.10;99.90;;;;;;4886196;29;20040;-85
2022/04/14 08:42:15;;;;;;;27.67;19.45;;;14.10;99.90;;;;;;4885704;29;20079;-84
2022/04/14 08:44:47;;;;;;;24.02;18.52;;;14.20;99.90;;;;;;4899823;29;20048;-85
2022/04/14 08:47:28;;;;;;;23.77;17.45;;;14.30;99.90;;;;;;4910599;29;20043;-85
2022/04/14 08:49:55;;;;;;;23.05;17.60;;;14.40;99.90;;;;;;4906826;29;20156;-84
2022/04/14 08:52:22;;;;;;;22.75;16.45;;;14.50;99.90;;;;;;4894455;29;20050;-84
2022/04/14 08:55:04;;;;;;;25.65;17.77;;;14.70;99.90;;;;;;4888962;29;20071;-86
2022/04/14 08:57:31;;;;;;;23.50;16.70;;;15.20;99.90;;;;;;4884141;29;20111;-85
2022/04/14 08:59:58;;;;;;;22.88;17.27;;;14.80;99.90;;;;;;4895655;29;20051;-84
2022/04/14 09:02:37;;;;;;;30.27;17.10;;;15.30;99.90;;;;;;4889006;29;20440;-85
2022/04/14 09:05:04;;;;;;;20.25;16.73;;;15.00;99.90;;;;;;4906198;29;20052;-85
2022/04/14 09:07:30;;;;;;;20.80;15.43;;;15.10;99.90;;;;;;4899184;29;20530;-85
2022/04/14 09:10:13;;;;;;;22.42;13.88;;;15.10;99.90;;;;;;4884552;29;20052;-85
2022/04/14 09:12:39;;;;;;;20.23;13.45;;;15.10;99.90;;;;;;4898211;29;20048;-85
2022/04/14 09:15:06;;;;;;;19.67;14.60;;;15.10;99.90;;;;;;4906099;29;20199;-84
2022/04/14 09:17:32;;;;;;;15.48;10.25;;;15.00;99.90;;;;;;4898133;29;20056;-83
2022/04/14 09:20:38;;;;;;;12.82;8.20;;;15.00;99.90;;;;;;4915670;29;20066;-84
2022/04/14 09:23:15;;;;;;;18.50;8.65;;;14.90;99.90;;;;;;4908613;29;20530;-84
2022/04/14 09:25:42;;;;;;;13.35;8.75;;;15.20;99.90;;;;;;4890192;29;20054;-84
2022/04/14 09:28:23;;;;;;;18.58;10.95;;;15.20;99.90;;;;;;4880242;29;20103;-85
2022/04/14 09:30:59;;;;;;;16.17;9.10;;;15.20;99.90;;;;;;4895999;29;20044;-87
2022/04/14 09:33:36;;;;;;;12.93;9.55;;;15.30;99.90;;;;;;4891424;29;20110;-84
2022/04/14 09:36:07;;;;;;;15.32;10.07;;;15.70;99.90;;;;;;4913402;29;20048;-84
2022/04/14 09:39:01;;;;;;;15.82;8.90;;;15.40;99.90;;;;;;4904145;29;20052;-83
2022/04/14 09:41:38;;;;;;;14.38;9.27;;;15.40;99.90;;;;;;4886502;29;20040;-84
2022/04/14 09:44:08;;;;;;;13.88;9.05;;;15.50;99.90;;;;;;4906420;29;20063;-85
2022/04/14 09:46:35;;;;;;;15.10;9.65;;;15.60;99.90;;;;;;4904953;29;20072;-84
2022/04/14 09:49:07;;;;;;;14.63;8.57;;;15.70;99.90;;;;;;4893947;29;20433;-86
2022/04/14 09:51:37;;;;;;;13.73;8.60;;;15.90;99.90;;;;;;4890600;29;20056;-85
2022/04/14 09:54:17;;;;;;;16.20;9.60;;;16.00;99.90;;;;;;4891254;29;20059;-82
2022/04/14 09:56:44;;;;;;;13.98;8.40;;;16.10;99.90;;;;;;4900808;29;20134;-81
2022/04/14 09:59:12;;;;;;;13.75;9.55;;;16.30;99.90;;;;;;4889929;29;20069;-81
2022/04/14 10:01:38;;;;;;;16.05;9.30;;;16.30;99.90;;;;;;4891408;29;20044;-81
2022/04/14 10:04:06;;;;;;;13.10;8.20;;;16.30;99.90;;;;;;4908311;29;20597;-80
2022/04/14 10:06:32;;;;;;;13.77;8.40;;;16.50;99.90;;;;;;4889857;29;20047;-81
2022/04/14 10:09:10;;;;;;;12.18;7.45;;;16.50;99.90;;;;;;4888049;29;20433;-81
2022/04/14 10:11:37;;;;;;;13.23;7.57;;;16.20;99.90;;;;;;4888937;29;20110;-81
2022/04/14 10:14:11;;;;;;;11.73;7.68;;;15.90;99.90;;;;;;4899496;29;20055;-80
2022/04/14 10:16:39;;;;;;;14.52;8.23;;;15.80;99.90;;;;;;4896172;29;20051;-81
2022/04/14 10:19:08;;;;;;;22.35;8.07;;;15.70;99.90;;;;;;4894907;29;20142;-80
2022/04/14 10:21:35;;;;;;;15.98;8.98;;;16.00;99.90;;;;;;4895536;29;20195;-82
2022/04/14 10:24:01;;;;;;;15.68;9.68;;;16.20;99.90;;;;;;4897841;29;20102;-80
2022/04/14 10:26:28;;;;;;;14.52;8.93;;;16.50;99.90;;;;;;4898706;29;20051;-81
2022/04/14 10:28:55;;;;;;;11.25;7.63;;;16.50;99.90;;;;;;4897547;29;20062;-80
2022/04/14 10:31:21;;;;;;;12.85;8.30;;;16.60;99.90;;;;;;4912692;29;20051;-80
2022/04/14 10:33:48;;;;;;;13.48;8.85;;;16.60;99.90;;;;;;4879063;29;20200;-80
2022/04/14 10:36:14;;;;;;;17.05;8.63;;;16.70;99.90;;;;;;4895447;29;20054;-80
2022/04/14 10:38:43;;;;;;;14.70;6.70;;;16.90;99.90;;;;;;4895611;29;20047;-81
2022/04/14 10:41:18;;;;;;;14.65;7.38;;;17.20;99.90;;;;;;4893826;29;20036;-81
2022/04/14 10:43:45;;;;;;;13.82;6.93;;;17.20;99.90;;;;;;4898836;29;20052;-81
2022/04/14 10:46:14;;;;;;;13.02;6.07;;;17.10;99.90;;;;;;4885919;29;20059;-81
2022/04/14 10:48:41;;;;;;;11.13;4.57;;;17.00;99.90;;;;;;4897802;29;20048;-81
2022/04/14 10:51:26;;;;;;;9.98;4.75;;;16.90;99.90;;;;;;4887982;29;20048;-81
2022/04/14 10:53:57;;;;;;;8.43;4.18;;;16.90;99.90;;;;;;4910859;29;20091;-81
2022/04/14 10:56:33;;;;;;;11.73;4.55;;;16.90;99.90;;;;;;4890873;29;20051;-81
2022/04/14 10:59:02;;;;;;;9.15;4.63;;;17.00;99.90;;;;;;4862801;29;20054;-81
2022/04/14 11:01:47;;;;;;;9.95;4.15;;;17.30;99.90;;;;;;4906722;29;20522;-80
2022/04/14 11:04:49;;;;;;;8.55;4.90;;;17.40;99.90;;;;;;4896830;29;20054;-81
2022/04/14 11:07:21;;;;;;;10.35;5.70;;;17.30;99.90;;;;;;4897140;29;20040;-80
2022/04/14 11:09:48;;;;;;;11.07;5.78;;;17.30;99.90;;;;;;4877732;29;20399;-81
2022/04/14 11:12:19;;;;;;;10.80;5.28;;;17.10;99.90;;;;;;4889432;29;20044;-80
2022/04/14 11:14:47;;;;;;;10.52;6.30;;;16.90;99.90;;;;;;4879841;29;20123;-80
2022/04/14 11:17:32;;;;;;;13.82;5.45;;;16.70;99.90;;;;;;4892149;29;20123;-81
2022/04/14 11:20:15;;;;;;;14.60;6.65;;;16.60;99.90;;;;;;4901282;29;20092;-82
2022/04/14 11:23:04;;;;;;;11.55;5.40;;;16.60;99.90;;;;;;4910112;29;20055;-81
2022/04/14 11:25:39;;;;;;;9.73;5.05;;;16.40;99.90;;;;;;4882738;29;20055;-81
2022/04/14 11:28:24;;;;;;;9.57;5.40;;;16.30;99.90;;;;;;4901415;29;20120;-81
2022/04/14 11:30:52;;;;;;;11.35;5.68;;;16.30;99.90;;;;;;4916404;29;20048;-81
2022/04/14 11:33:41;;;;;;;10.25;5.45;;;16.50;99.90;;;;;;4917496;29;20040;-81
2022/04/14 11:36:25;;;;;;;9.38;3.97;;;16.60;99.90;;;;;;4892109;29;20048;-81
2022/04/14 11:38:51;;;;;;;8.82;4.15;;;17.00;99.90;;;;;;4877936;29;20436;-82
2022/04/14 11:41:34;;;;;;;8.57;4.63;;;17.10;99.90;;;;;;4878564;29;20052;-81
2022/04/14 11:44:02;;;;;;;10.93;4.35;;;17.30;99.90;;;;;;4875031;29;20509;-81
2022/04/14 11:46:28;;;;;;;10.43;4.72;;;17.30;99.90;;;;;;4877981;29;20048;-81
2022/04/14 11:48:54;;;;;;;7.90;4.10;;;17.40;99.90;;;;;;4877356;29;20055;-80
2022/04/14 11:51:20;;;;;;;7.97;3.38;;;17.30;99.90;;;;;;4877592;29;20048;-80
2022/04/14 11:53:46;;;;;;;6.43;3.33;;;17.10;99.90;;;;;;4893837;29;20130;-81
2022/04/14 11:56:17;;;;;;;6.63;3.83;;;17.10;99.90;;;;;;4904645;29;20465;-81
2022/04/14 11:58:43;;;;;;;10.07;4.10;;;17.20;99.90;;;;;;4888677;29;20035;-81
2022/04/14 12:01:09;;;;;;;10.85;4.35;;;17.30;99.90;;;;;;4901547;29;20044;-81
2022/04/14 12:03:35;;;;;;;9.75;3.78;;;17.40;99.90;;;;;;4887135;29;20043;-81
2022/04/14 12:06:06;;;;;;;6.82;4.10;;;17.40;99.90;;;;;;4902590;29;20075;-81
2022/04/14 12:08:33;;;;;;;9.40;4.38;;;17.40;99.90;;;;;;4903504;29;20409;-81
2022/04/14 12:11:12;;;;;;;9.07;4.35;;;17.40;99.90;;;;;;4886919;29;20047;-81
2022/04/14 12:13:40;;;;;;;8.45;3.60;;;17.30;99.90;;;;;;4907783;29;20040;-82
2022/04/14 12:16:09;;;;;;;6.75;3.72;;;17.30;99.90;;;;;;4901788;29;20044;-82
2022/04/14 12:18:39;;;;;;;7.43;3.00;;;17.30;99.90;;;;;;4906286;29;20559;-82
2022/04/14 12:21:06;;;;;;;12.23;3.60;;;17.30;99.90;;;;;;4886286;29;20067;-82
2022/04/14 12:23:33;;;;;;;7.18;3.83;;;17.30;99.90;;;;;;4885267;29;20936;-85
2022/04/14 12:26:00;;;;;;;7.80;4.28;;;17.20;99.90;;;;;;4881146;29;20088;-84
2022/04/14 12:28:26;;;;;;;12.73;4.85;;;17.30;99.90;;;;;;4882913;29;20044;-83
2022/04/14 12:30:51;;;;;;;11.80;6.20;;;17.30;99.90;;;;;;4897779;29;20044;-84
2022/04/14 12:33:26;;;;;;;12.38;5.47;;;17.30;99.90;;;;;;4881771;29;20485;-84
2022/04/14 12:35:52;;;;;;;9.05;4.75;;;17.20;99.90;;;;;;4897512;29;20051;-84
2022/04/14 12:38:21;;;;;;;10.10;5.25;;;17.10;99.90;;;;;;4883008;29;20052;-85
2022/04/14 12:40:57;;;;;;;12.32;5.20;;;17.00;99.90;;;;;;4879183;29;20044;-84
2022/04/14 12:43:26;;;;;;;12.30;6.30;;;16.80;99.90;;;;;;4882333;29;20517;-84
2022/04/14 12:45:52;;;;;;;11.32;6.30;;;16.70;99.90;;;;;;4896591;29;20070;-84
2022/04/14 12:48:36;;;;;;;13.80;7.30;;;16.60;99.90;;;;;;4882123;29;20501;-84
2022/04/14 12:51:03;;;;;;;13.65;7.28;;;16.60;99.90;;;;;;4897398;29;20163;-85